createdAt,value
2017-11-14T00:01:50.597Z,10.47
2017-11-14T00:03:53.240Z,10.57
2017-11-14T00:05:55.949Z,12.40
2017-11-14T00:07:58.642Z,14.93
2017-11-14T00:10:01.296Z,12.53
2017-11-14T00:12:03.955Z,12.13
2017-11-14T00:14:06.635Z,8.80
2017-11-14T00:16:09.269Z,9.63
2017-11-14T00:18:11.926Z,8.37
2017-11-14T00:20:14.599Z,8.97
2017-11-14T00:22:17.286Z,11.47
2017-11-14T00:24:19.925Z,13.10
2017-11-14T00:26:22.599Z,12.90
2017-11-14T00:28:25.233Z,11.53
2017-11-14T00:30:28.736Z,13.43
2017-11-14T00:32:32.144Z,12.80
2017-11-14T00:34:34.798Z,14.10
2017-11-14T00:36:38.227Z,10.07
2017-11-14T00:38:40.880Z,11.60
2017-11-14T00:40:43.553Z,11.47
2017-11-14T00:42:46.213Z,13.17
2017-11-14T00:44:49.616Z,14.50
2017-11-14T00:46:52.295Z,12.80
2017-11-14T00:48:54.988Z,15.23
2017-11-14T00:50:57.655Z,14.87
2017-11-14T00:53:00.307Z,12.07
2017-11-14T00:55:03.749Z,13.70
2017-11-14T00:57:06.424Z,14.20
2017-11-14T00:59:09.075Z,10.83
2017-11-14T01:01:11.740Z,11.90
2017-11-14T01:03:14.401Z,12.00
2017-11-14T01:05:17.815Z,12.07
2017-11-14T01:07:20.543Z,11.97
2017-11-14T01:09:23.181Z,12.03
2017-11-14T01:11:25.878Z,12.23
2017-11-14T01:13:28.555Z,11.37
2017-11-14T01:15:31.211Z,10.37
2017-11-14T01:17:33.858Z,10.50
2017-11-14T01:19:36.511Z,8.97
2017-11-14T01:21:39.935Z,9.70
2017-11-14T01:23:42.580Z,10.10
2017-11-14T01:25:45.254Z,10.57
2017-11-14T01:27:48.644Z,11.67
2017-11-14T01:29:52.039Z,10.70
2017-11-14T01:31:55.459Z,10.63
2017-11-14T01:33:58.104Z,11.10
2017-11-14T01:36:01.558Z,11.50
2017-11-14T01:38:04.263Z,11.13
2017-11-14T01:40:07.706Z,10.80
2017-11-14T01:42:10.458Z,13.60
2017-11-14T01:44:13.144Z,13.17
2017-11-14T01:46:15.823Z,12.87
2017-11-14T01:48:18.510Z,12.10
2017-11-14T01:50:21.184Z,12.90
2017-11-14T01:52:23.882Z,15.93
2017-11-14T01:54:26.532Z,12.80
2017-11-14T01:56:29.201Z,13.07
2017-11-14T01:58:31.876Z,14.30
2017-11-14T02:00:46.366Z,14.60
2017-11-14T02:02:49.037Z,14.70
2017-11-14T02:04:51.739Z,14.60
2017-11-14T02:06:54.490Z,13.37
2017-11-14T02:08:57.201Z,15.60
2017-11-14T02:11:00.664Z,16.87
2017-11-14T02:13:03.340Z,13.93
2017-11-14T02:15:06.011Z,15.33
2017-11-14T02:17:08.752Z,15.10
2017-11-14T02:19:11.450Z,15.47
2017-11-14T02:21:14.158Z,15.43
2017-11-14T02:23:16.882Z,15.93
2017-11-14T02:25:19.568Z,15.50
2017-11-14T02:27:22.291Z,15.23
2017-11-14T02:29:24.962Z,15.73
2017-11-14T02:31:27.672Z,18.60
2017-11-14T02:33:30.358Z,16.77
2017-11-14T02:35:33.033Z,16.37
2017-11-14T02:37:35.763Z,17.60
2017-11-14T02:39:38.442Z,16.90
2017-11-14T02:41:41.132Z,18.87
2017-11-14T02:43:43.809Z,18.63
2017-11-14T02:45:46.552Z,18.70
2017-11-14T02:47:49.230Z,18.20
2017-11-14T02:49:51.982Z,17.20
2017-11-14T02:51:54.825Z,18.77
2017-11-14T02:53:57.518Z,17.83
2017-11-14T02:56:00.237Z,18.30
2017-11-14T02:58:02.939Z,18.10
2017-11-14T03:00:06.364Z,18.60
2017-11-14T03:02:09.056Z,17.60
2017-11-14T03:04:11.698Z,18.23
2017-11-14T03:06:14.363Z,16.60
2017-11-14T03:08:17.766Z,17.43
2017-11-14T03:10:20.422Z,17.23
2017-11-14T03:12:23.887Z,17.73
2017-11-14T03:14:26.613Z,15.63
2017-11-14T03:16:29.331Z,15.87
2017-11-14T03:18:32.024Z,15.13
2017-11-14T03:20:34.700Z,15.37
2017-11-14T03:22:37.375Z,16.27
2017-11-14T03:24:40.045Z,17.03
2017-11-14T03:26:42.743Z,15.50
2017-11-14T03:28:46.199Z,15.90
2017-11-14T03:30:48.881Z,14.33
2017-11-14T03:32:51.585Z,14.30
2017-11-14T03:34:55.019Z,12.90
2017-11-14T03:36:57.670Z,14.83
2017-11-14T03:39:02.297Z,13.30
2017-11-14T03:41:04.981Z,14.20
2017-11-14T03:43:07.640Z,14.13
2017-11-14T03:45:10.346Z,14.50
2017-11-14T03:47:13.010Z,14.70
2017-11-14T03:49:15.673Z,16.20
2017-11-14T03:51:18.423Z,13.70
2017-11-14T03:53:21.848Z,15.00
2017-11-14T03:55:24.487Z,14.00
2017-11-14T03:57:27.938Z,15.33
2017-11-14T03:59:30.596Z,15.30
2017-11-14T04:01:33.261Z,14.87
2017-11-14T04:03:35.965Z,15.83
2017-11-14T04:05:38.737Z,16.10
2017-11-14T04:07:41.375Z,17.07
2017-11-14T04:09:44.849Z,17.43
2017-11-14T04:11:47.555Z,16.40
2017-11-14T04:13:50.176Z,16.60
2017-11-14T04:15:52.857Z,15.40
2017-11-14T04:17:55.560Z,17.47
2017-11-14T04:19:58.971Z,17.77
2017-11-14T04:22:01.639Z,17.00
2017-11-14T04:24:05.049Z,17.23
2017-11-14T04:26:07.681Z,15.57
2017-11-14T04:28:10.354Z,17.37
2017-11-14T04:30:13.027Z,19.23
2017-11-14T04:32:15.668Z,18.60
2017-11-14T04:34:18.329Z,17.93
2017-11-14T04:36:20.994Z,17.60
2017-11-14T04:38:23.683Z,19.53
2017-11-14T04:40:26.349Z,19.00
2017-11-14T04:42:29.130Z,18.47
2017-11-14T04:44:31.794Z,17.17
2017-11-14T04:46:34.450Z,18.60
2017-11-14T04:48:37.850Z,17.70
2017-11-14T04:50:41.279Z,17.43
2017-11-14T04:52:43.923Z,18.73
2017-11-14T04:54:46.601Z,17.77
2017-11-14T04:56:49.294Z,18.07
2017-11-14T04:58:51.948Z,17.03
2017-11-14T05:00:54.617Z,17.30
2017-11-14T05:02:57.303Z,17.40
2017-11-14T05:04:59.975Z,17.73
2017-11-14T05:07:02.665Z,17.47
2017-11-14T05:09:05.318Z,16.70
2017-11-14T05:11:08.957Z,18.10
2017-11-14T05:13:11.643Z,16.00
2017-11-14T05:15:14.316Z,17.93
2017-11-14T05:17:17.026Z,16.87
2017-11-14T05:19:19.751Z,17.10
2017-11-14T05:21:22.448Z,16.03
2017-11-14T05:23:25.101Z,17.13
2017-11-14T05:25:27.764Z,17.83
2017-11-14T05:27:30.413Z,18.83
2017-11-14T05:29:33.848Z,17.83
2017-11-14T05:31:36.511Z,17.40
2017-11-14T05:33:39.221Z,17.10
2017-11-14T05:35:47.922Z,17.23
2017-11-14T05:37:58.260Z,15.50
2017-11-14T05:40:00.910Z,16.90
2017-11-14T05:42:03.647Z,15.47
2017-11-14T05:44:06.310Z,15.43
2017-11-14T05:46:08.979Z,16.27
2017-11-14T05:48:11.642Z,14.90
2017-11-14T05:50:14.265Z,14.97
2017-11-14T05:52:16.961Z,17.57
2017-11-14T05:54:19.642Z,15.00
2017-11-14T05:56:22.319Z,14.77
2017-11-14T05:58:24.974Z,15.00
2017-11-14T06:00:28.388Z,15.30
2017-11-14T06:02:31.173Z,14.00
2017-11-14T06:04:33.845Z,14.53
2017-11-14T06:06:36.522Z,14.87
2017-11-14T06:08:39.178Z,15.40
2017-11-14T06:10:42.701Z,14.93
2017-11-14T06:12:45.367Z,14.80
2017-11-14T06:14:48.026Z,14.67
2017-11-14T06:16:50.684Z,13.10
2017-11-14T06:18:54.109Z,14.50
2017-11-14T06:20:56.791Z,14.90
2017-11-14T06:22:59.464Z,14.67
2017-11-14T06:25:02.291Z,14.90
2017-11-14T06:27:04.957Z,14.57
2017-11-14T06:29:07.601Z,15.30
2017-11-14T06:31:10.278Z,14.80
2017-11-14T06:33:12.927Z,14.27
2017-11-14T06:35:15.561Z,14.60
2017-11-14T06:37:18.215Z,14.40
2017-11-14T06:39:20.873Z,16.10
2017-11-14T06:41:23.532Z,15.83
2017-11-14T06:43:26.169Z,15.70
2017-11-14T06:45:28.800Z,16.87
2017-11-14T06:47:31.469Z,15.87
2017-11-14T06:49:34.104Z,16.97
2017-11-14T06:51:37.544Z,15.17
2017-11-14T06:53:40.206Z,16.47
2017-11-14T06:55:42.855Z,15.70
2017-11-14T06:57:52.547Z,15.27
2017-11-14T06:59:55.195Z,16.80
2017-11-14T07:01:57.832Z,16.90
2017-11-14T07:04:01.283Z,17.03
2017-11-14T07:06:03.950Z,17.90
2017-11-14T07:08:06.580Z,16.83
2017-11-14T07:10:10.094Z,17.30
2017-11-14T07:12:12.763Z,15.67
2017-11-14T07:14:15.426Z,16.43
2017-11-14T07:16:18.863Z,16.10
2017-11-14T07:18:23.294Z,17.47
2017-11-14T07:20:26.061Z,17.33
2017-11-14T07:22:37.176Z,17.93
2017-11-14T07:24:39.998Z,17.87
2017-11-14T07:26:43.478Z,16.60
2017-11-14T07:28:47.122Z,16.13
2017-11-14T07:30:49.812Z,17.50
2017-11-14T07:32:52.524Z,16.43
2017-11-14T07:34:55.181Z,17.70
2017-11-14T07:36:58.613Z,17.20
2017-11-14T07:39:01.271Z,15.90
2017-11-14T07:41:03.941Z,15.40
2017-11-14T07:43:06.615Z,14.27
2017-11-14T07:45:09.261Z,14.43
2017-11-14T07:47:12.727Z,15.03
2017-11-14T07:49:15.421Z,13.83
2017-11-14T07:51:18.098Z,13.83
2017-11-14T07:53:20.779Z,13.60
2017-11-14T07:55:23.441Z,13.93
2017-11-14T07:57:26.147Z,13.10
2017-11-14T07:59:28.847Z,12.63
2017-11-14T08:01:31.544Z,12.50
2017-11-14T08:03:34.239Z,12.37
2017-11-14T08:05:36.896Z,12.23
2017-11-14T08:07:39.521Z,12.17
2017-11-14T08:09:42.962Z,12.77
2017-11-14T08:11:45.616Z,13.57
2017-11-14T08:13:48.288Z,11.57
2017-11-14T08:15:50.947Z,12.83
2017-11-14T08:17:53.627Z,12.43
2017-11-14T08:19:56.272Z,12.20
2017-11-14T08:21:58.932Z,12.70
2017-11-14T08:24:02.418Z,12.67
2017-11-14T08:26:05.077Z,12.13
2017-11-14T08:28:07.753Z,11.97
2017-11-14T08:30:10.409Z,12.93
2017-11-14T08:32:13.060Z,12.33
2017-11-14T08:34:16.497Z,12.20
2017-11-14T08:36:19.175Z,12.47
2017-11-14T08:38:21.813Z,11.63
2017-11-14T08:40:24.527Z,12.43
2017-11-14T08:42:27.173Z,12.17
2017-11-14T08:44:30.608Z,13.53
2017-11-14T08:46:33.290Z,12.53
2017-11-14T08:48:35.970Z,12.60
2017-11-14T08:50:38.611Z,12.30
2017-11-14T08:52:41.280Z,12.07
2017-11-14T08:54:43.944Z,13.20
2017-11-14T08:56:46.640Z,12.63
2017-11-14T08:58:49.370Z,12.93
2017-11-14T09:00:52.839Z,13.07
2017-11-14T09:02:55.607Z,12.90
2017-11-14T09:04:58.454Z,11.33
2017-11-14T09:07:01.196Z,12.27
2017-11-14T09:09:04.662Z,13.10
2017-11-14T09:11:07.382Z,11.73
2017-11-14T09:13:10.068Z,12.40
2017-11-14T09:15:12.776Z,11.77
2017-11-14T09:17:15.441Z,12.30
2017-11-14T09:19:18.180Z,11.83
2017-11-14T09:21:20.846Z,12.30
2017-11-14T09:23:24.302Z,11.63
2017-11-14T09:25:27.002Z,11.77
2017-11-14T09:27:30.467Z,12.00
2017-11-14T09:29:33.186Z,11.20
2017-11-14T09:31:36.638Z,12.63
2017-11-14T09:33:39.336Z,11.30
2017-11-14T09:35:42.768Z,12.13
2017-11-14T09:37:46.223Z,11.30
2017-11-14T09:39:48.922Z,13.03
2017-11-14T09:41:51.598Z,11.83
2017-11-14T09:43:54.302Z,12.03
2017-11-14T09:45:56.974Z,10.90
2017-11-14T09:47:59.679Z,11.97
2017-11-14T09:50:02.387Z,12.57
2017-11-14T09:52:05.819Z,13.77
2017-11-14T09:54:08.517Z,12.47
2017-11-14T09:56:11.237Z,12.00
2017-11-14T09:58:14.686Z,12.73
2017-11-14T10:00:17.389Z,15.33
2017-11-14T10:02:20.057Z,12.17
2017-11-14T10:04:22.781Z,11.50
2017-11-14T10:06:25.473Z,12.50
2017-11-14T10:08:28.153Z,11.93
2017-11-14T10:10:30.858Z,11.10
2017-11-14T10:12:33.559Z,10.77
2017-11-14T10:14:36.286Z,11.03
2017-11-14T10:16:38.976Z,11.93
2017-11-14T10:18:41.665Z,10.93
2017-11-14T10:20:45.142Z,11.40
2017-11-14T10:22:47.838Z,11.03
2017-11-14T10:24:50.541Z,9.63
2017-11-14T10:26:53.228Z,11.20
2017-11-14T10:28:55.960Z,10.30
2017-11-14T10:30:58.649Z,10.00
2017-11-14T10:33:02.094Z,9.50
2017-11-14T10:35:04.776Z,9.80
2017-11-14T10:37:07.446Z,8.90
2017-11-14T10:39:10.124Z,9.57
2017-11-14T10:41:12.835Z,9.20
2017-11-14T10:43:15.518Z,10.20
2017-11-14T10:45:18.998Z,8.83
2017-11-14T10:47:21.699Z,8.93
2017-11-14T10:49:25.170Z,9.27
2017-11-14T10:51:27.902Z,8.73
2017-11-14T10:53:30.580Z,8.67
2017-11-14T10:55:33.373Z,8.40
2017-11-14T10:57:36.081Z,7.77
2017-11-14T10:59:39.533Z,7.80
2017-11-14T11:01:42.202Z,8.27
2017-11-14T11:03:44.903Z,7.70
2017-11-14T11:05:47.591Z,8.90
2017-11-14T11:07:50.273Z,8.63
2017-11-14T11:09:52.971Z,8.17
2017-11-14T11:11:55.648Z,10.23
2017-11-14T11:13:59.104Z,9.90
2017-11-14T11:16:01.772Z,10.20
2017-11-14T11:18:04.519Z,9.00
2017-11-14T11:20:08.412Z,7.90
2017-11-14T11:22:11.084Z,9.10
2017-11-14T11:24:13.798Z,9.27
2017-11-14T11:26:16.530Z,11.93
2017-11-14T11:28:19.208Z,9.70
2017-11-14T11:30:21.909Z,9.53
2017-11-14T11:32:24.589Z,9.33
2017-11-14T11:34:27.280Z,9.50
2017-11-14T11:36:29.989Z,9.17
2017-11-14T11:38:32.690Z,8.97
2017-11-14T11:40:36.147Z,9.40
2017-11-14T11:42:38.841Z,9.53
2017-11-14T11:44:41.583Z,9.40
2017-11-14T11:46:44.259Z,9.40
2017-11-14T11:48:46.944Z,9.37
2017-11-14T11:50:49.682Z,9.17
2017-11-14T11:52:53.118Z,9.63
2017-11-14T11:54:55.834Z,8.70
2017-11-14T11:56:58.545Z,9.40
2017-11-14T11:59:01.259Z,9.23
2017-11-14T12:01:04.693Z,9.23
2017-11-14T12:03:08.172Z,8.60
2017-11-14T12:05:10.857Z,9.53
2017-11-14T12:07:13.543Z,9.10
2017-11-14T12:09:16.334Z,9.70
2017-11-14T12:11:19.263Z,9.93
2017-11-14T12:13:21.959Z,9.10
2017-11-14T12:15:24.679Z,8.67
2017-11-14T12:17:27.417Z,7.50
2017-11-14T12:19:30.101Z,8.30
2017-11-14T12:21:32.938Z,9.47
2017-11-14T12:23:36.381Z,8.47
2017-11-14T12:25:39.072Z,8.90
2017-11-14T12:27:41.805Z,8.70
2017-11-14T12:29:44.487Z,9.40
2017-11-14T12:31:47.192Z,10.50
2017-11-14T12:33:49.906Z,8.40
2017-11-14T12:35:53.337Z,9.83
2017-11-14T12:37:56.010Z,9.43
2017-11-14T12:39:58.806Z,9.83
2017-11-14T12:42:01.494Z,9.80
2017-11-14T12:44:04.137Z,8.80
2017-11-14T12:46:06.812Z,9.50
2017-11-14T12:48:09.477Z,9.23
2017-11-14T12:50:12.136Z,9.37
2017-11-14T12:52:14.804Z,8.87
2017-11-14T12:54:17.446Z,8.30
2017-11-14T12:56:20.110Z,9.80
2017-11-14T12:58:22.779Z,8.73
2017-11-14T13:00:25.466Z,9.50
2017-11-14T13:02:28.163Z,9.50
2017-11-14T13:04:30.859Z,9.73
2017-11-14T13:06:34.305Z,9.10
2017-11-14T13:08:36.999Z,8.90
2017-11-14T13:10:39.657Z,9.37
2017-11-14T13:12:42.367Z,7.93
2017-11-14T13:14:45.034Z,8.90
2017-11-14T13:16:47.760Z,10.00
2017-11-14T13:18:50.517Z,8.93
2017-11-14T13:20:53.927Z,9.80
2017-11-14T13:22:56.595Z,9.00
2017-11-14T13:24:59.238Z,8.60
2017-11-14T13:27:01.904Z,9.10
2017-11-14T13:29:04.583Z,8.10
2017-11-14T13:31:07.243Z,8.80
2017-11-14T13:33:09.938Z,9.17
2017-11-14T13:35:13.375Z,8.37
2017-11-14T13:37:16.064Z,8.87
2017-11-14T13:39:18.726Z,8.50
2017-11-14T13:41:21.357Z,8.53
2017-11-14T13:43:24.017Z,8.50
2017-11-14T13:45:26.661Z,7.30
2017-11-14T13:47:29.323Z,8.80
2017-11-14T13:49:31.980Z,8.40
2017-11-14T13:51:34.639Z,8.80
2017-11-14T13:53:38.081Z,8.17
2017-11-14T13:55:40.729Z,8.20
2017-11-14T13:57:43.408Z,7.03
2017-11-14T13:59:46.081Z,8.40
2017-11-14T14:01:48.710Z,8.77
2017-11-14T14:03:51.371Z,8.10
2017-11-14T14:05:54.013Z,8.30
2017-11-14T14:07:56.699Z,7.87
2017-11-14T14:09:59.359Z,7.93
2017-11-14T14:12:02.031Z,8.60
2017-11-14T14:14:04.706Z,8.47
2017-11-14T14:16:07.386Z,8.10
2017-11-14T14:18:10.066Z,8.40
2017-11-14T14:20:12.732Z,7.90
2017-11-14T14:22:15.438Z,8.43
2017-11-14T14:24:18.081Z,8.20
2017-11-14T14:26:20.724Z,8.10
2017-11-14T14:28:24.180Z,8.70
2017-11-14T14:30:26.812Z,8.00
2017-11-14T14:32:29.481Z,9.93
2017-11-14T14:34:32.898Z,8.50
2017-11-14T14:36:35.594Z,8.40
2017-11-14T14:38:38.252Z,8.23
2017-11-14T14:40:40.925Z,8.37
2017-11-14T14:42:43.599Z,9.97
2017-11-14T14:44:46.255Z,8.93
2017-11-14T14:46:48.922Z,8.87
2017-11-14T14:48:52.362Z,9.20
2017-11-14T14:50:55.019Z,9.30
2017-11-14T14:52:57.690Z,8.70
2017-11-14T14:55:00.365Z,8.20
2017-11-14T14:57:03.009Z,8.13
2017-11-14T14:59:06.458Z,8.50
2017-11-14T15:01:09.096Z,8.40
2017-11-14T15:03:11.770Z,8.43
2017-11-14T15:05:14.459Z,9.23
2017-11-14T15:07:17.100Z,9.73
2017-11-14T15:09:20.527Z,8.97
2017-11-14T15:11:23.165Z,9.50
2017-11-14T15:13:26.597Z,7.87
2017-11-14T15:15:29.232Z,8.53
2017-11-14T15:17:32.664Z,9.83
2017-11-14T15:19:35.323Z,8.70
2017-11-14T15:21:38.007Z,8.37
2017-11-14T15:23:40.692Z,8.97
2017-11-14T15:25:43.364Z,8.20
2017-11-14T15:27:46.090Z,8.77
2017-11-14T15:29:48.739Z,8.50
2017-11-14T15:31:51.401Z,9.30
2017-11-14T15:33:54.094Z,9.17
2017-11-14T15:35:56.750Z,8.80
2017-11-14T15:37:59.404Z,9.03
2017-11-14T15:40:02.096Z,8.70
2017-11-14T15:42:04.750Z,9.20
2017-11-14T15:44:07.409Z,8.53
2017-11-14T15:46:10.836Z,8.60
2017-11-14T15:48:13.490Z,8.83
2017-11-14T15:50:16.166Z,8.60
2017-11-14T15:52:18.836Z,8.90
2017-11-14T15:54:21.528Z,8.73
2017-11-14T15:56:24.216Z,8.07
2017-11-14T15:58:26.894Z,9.77
2017-11-14T16:00:29.547Z,9.17
2017-11-14T16:02:32.180Z,9.57
2017-11-14T16:04:34.870Z,8.00
2017-11-14T16:06:37.597Z,8.83
2017-11-14T16:08:40.317Z,8.70
2017-11-14T16:10:42.986Z,9.40
2017-11-14T16:12:46.431Z,8.60
2017-11-14T16:14:49.111Z,9.10
2017-11-14T16:16:51.794Z,13.37
2017-11-14T16:18:54.448Z,10.37
2017-11-14T16:20:57.156Z,8.60
2017-11-14T16:23:00.134Z,8.63
2017-11-14T16:25:02.812Z,7.10
2017-11-14T16:27:05.546Z,7.73
2017-11-14T16:29:08.211Z,7.00
2017-11-14T16:31:10.924Z,6.63
2017-11-14T16:33:13.647Z,7.40
2017-11-14T16:35:17.074Z,6.93
2017-11-14T16:37:20.246Z,6.13
2017-11-14T16:39:22.931Z,6.33
2017-11-14T16:41:25.621Z,14.17
2017-11-14T16:43:28.287Z,17.40
2017-11-14T16:45:31.006Z,10.13
2017-11-14T16:47:33.664Z,12.10
2017-11-14T16:49:36.362Z,15.40
2017-11-14T16:51:39.117Z,9.10
2017-11-14T16:53:41.962Z,6.20
2017-11-14T16:55:44.686Z,7.13
2017-11-14T16:57:47.327Z,8.60
2017-11-14T16:59:50.018Z,8.20
2017-11-14T17:01:52.705Z,9.70
2017-11-14T17:03:55.452Z,10.97
2017-11-14T17:05:58.137Z,10.80
2017-11-14T17:08:00.788Z,7.20
2017-11-14T17:10:03.484Z,7.90
2017-11-14T17:12:06.167Z,7.20
2017-11-14T17:14:08.842Z,6.60
2017-11-14T17:16:11.546Z,7.10
2017-11-14T17:18:14.205Z,7.83
2017-11-14T17:20:16.870Z,7.77
2017-11-14T17:22:19.528Z,7.00
2017-11-14T17:24:22.165Z,7.40
2017-11-14T17:26:24.891Z,6.60
2017-11-14T17:28:27.545Z,6.67
2017-11-14T17:30:30.216Z,5.93
2017-11-14T17:32:32.864Z,7.33
2017-11-14T17:34:35.584Z,7.90
2017-11-14T17:36:38.245Z,7.23
2017-11-14T17:38:52.769Z,6.93
2017-11-14T17:40:55.443Z,7.40
2017-11-14T17:42:58.149Z,6.70
2017-11-14T17:45:00.831Z,8.43
2017-11-14T17:47:03.520Z,7.43
2017-11-14T17:49:06.170Z,8.30
2017-11-14T17:51:08.846Z,8.50
2017-11-14T17:53:11.514Z,8.03
2017-11-14T17:55:14.950Z,8.20
2017-11-14T17:57:17.689Z,12.20
2017-11-14T17:59:20.362Z,7.70
2017-11-14T18:01:23.033Z,6.90
2017-11-14T18:03:25.834Z,7.60
2017-11-14T18:05:28.510Z,8.20
2017-11-14T18:07:31.159Z,8.43
2017-11-14T18:09:34.559Z,7.90
2017-11-14T18:11:37.220Z,8.20
2017-11-14T18:13:40.639Z,8.20
2017-11-14T18:15:43.317Z,8.30
2017-11-14T18:17:51.721Z,7.50
2017-11-14T18:19:54.364Z,8.23
2017-11-14T18:21:57.833Z,8.37
2017-11-14T18:24:00.462Z,9.87
2017-11-14T18:26:03.562Z,9.43
2017-11-14T18:28:06.296Z,8.43
2017-11-14T18:30:09.713Z,8.40
2017-11-14T18:32:14.763Z,9.67
2017-11-14T18:34:17.430Z,10.50
2017-11-14T18:36:21.678Z,8.30
2017-11-14T18:38:24.494Z,10.17
2017-11-14T18:40:32.186Z,20.43
2017-11-14T18:42:43.366Z,10.70
2017-11-14T18:44:47.861Z,12.93
2017-11-14T18:46:50.617Z,14.10
2017-11-14T18:48:53.272Z,16.53
2017-11-14T18:50:56.041Z,20.07
2017-11-14T18:52:58.796Z,19.10
2017-11-14T18:55:01.424Z,45.00
2017-11-14T18:57:04.157Z,25.43
2017-11-14T18:59:06.912Z,21.33
2017-11-14T19:01:11.588Z,26.27
2017-11-14T19:03:15.415Z,15.40
2017-11-14T19:05:18.165Z,19.93
2017-11-14T19:07:21.976Z,14.30
2017-11-14T19:09:24.727Z,11.03
2017-11-14T19:11:27.419Z,21.73
2017-11-14T19:13:38.315Z,12.90
2017-11-14T19:15:42.300Z,16.73
2017-11-14T19:17:44.959Z,26.60
2017-11-14T19:19:47.722Z,12.40
2017-11-14T19:21:50.423Z,19.70
2017-11-14T19:23:53.076Z,11.50
2017-11-14T19:25:55.788Z,16.63
2017-11-14T19:27:58.445Z,12.43
2017-11-14T19:30:01.086Z,16.60
2017-11-14T19:32:06.725Z,14.17
2017-11-14T19:34:09.387Z,14.83
2017-11-14T19:36:12.073Z,16.47
2017-11-14T19:38:17.399Z,21.60
2017-11-14T19:40:20.097Z,12.90
2017-11-14T19:42:22.803Z,9.70
2017-11-14T19:44:25.903Z,13.47
2017-11-14T19:46:28.664Z,9.50
2017-11-14T19:48:33.846Z,9.90
2017-11-14T19:50:38.313Z,9.57
2017-11-14T19:52:41.003Z,10.63
2017-11-14T19:54:43.657Z,9.93
2017-11-14T19:56:46.338Z,11.20
2017-11-14T19:58:48.981Z,9.20
2017-11-14T20:00:51.844Z,10.07
2017-11-14T20:02:55.316Z,10.40
2017-11-14T20:04:57.972Z,10.13
2017-11-14T20:07:00.656Z,12.10
2017-11-14T20:09:03.377Z,11.20
2017-11-14T20:11:06.057Z,11.47
2017-11-14T20:13:08.759Z,11.60
2017-11-14T20:15:11.504Z,11.37
2017-11-14T20:17:14.207Z,11.70
2017-11-14T20:19:16.877Z,11.40
2017-11-14T20:21:19.581Z,10.67
2017-11-14T20:23:22.404Z,11.40
2017-11-14T20:25:25.127Z,10.60
2017-11-14T20:27:27.835Z,11.40
2017-11-14T20:29:30.507Z,10.53
2017-11-14T20:31:33.950Z,12.40
2017-11-14T20:33:36.724Z,12.47
2017-11-14T20:35:39.482Z,11.23
2017-11-14T20:37:42.175Z,10.70
2017-11-14T20:39:44.811Z,11.80
2017-11-14T20:41:48.252Z,10.83
2017-11-14T20:43:50.917Z,11.13
2017-11-14T20:45:53.634Z,11.87
2017-11-14T20:47:56.298Z,10.77
2017-11-14T20:49:59.053Z,11.80
2017-11-14T20:52:01.725Z,10.40
2017-11-14T20:54:04.383Z,11.17
2017-11-14T20:56:07.061Z,10.83
2017-11-14T20:58:09.728Z,11.60
2017-11-14T21:00:12.391Z,12.47
2017-11-14T21:02:15.842Z,11.70
2017-11-14T21:04:18.871Z,11.53
2017-11-14T21:06:22.306Z,10.20
2017-11-14T21:08:25.011Z,10.57
2017-11-14T21:10:27.714Z,11.60
2017-11-14T21:12:31.240Z,12.23
2017-11-14T21:14:33.893Z,11.67
2017-11-14T21:16:36.594Z,11.73
2017-11-14T21:18:39.247Z,11.93
2017-11-14T21:20:41.903Z,12.17
2017-11-14T21:22:45.331Z,12.00
2017-11-14T21:24:47.985Z,15.00
2017-11-14T21:26:51.438Z,11.77
2017-11-14T21:28:54.101Z,12.40
2017-11-14T21:30:56.772Z,12.70
2017-11-14T21:32:59.440Z,13.90
2017-11-14T21:35:02.072Z,13.90
2017-11-14T21:37:04.775Z,13.77
2017-11-14T21:39:07.449Z,15.10
2017-11-14T21:41:10.097Z,14.20
2017-11-14T21:43:13.499Z,16.43
2017-11-14T21:45:16.151Z,14.97
2017-11-14T21:47:19.667Z,14.93
2017-11-14T21:49:22.376Z,15.90
2017-11-14T21:51:25.098Z,13.63
2017-11-14T21:53:27.746Z,14.43
2017-11-14T21:55:30.382Z,14.60
2017-11-14T21:57:33.231Z,14.00
2017-11-14T21:59:36.641Z,14.50
2017-11-14T22:01:39.347Z,15.57
2017-11-14T22:03:42.113Z,16.80
2017-11-14T22:05:44.765Z,15.67
2017-11-14T22:07:48.211Z,15.97
2017-11-14T22:09:50.829Z,15.23
2017-11-14T22:11:54.271Z,16.70
2017-11-14T22:13:56.911Z,15.10
2017-11-14T22:15:59.561Z,16.50
2017-11-14T22:18:02.987Z,17.97
2017-11-14T22:20:05.628Z,17.90
2017-11-14T22:22:09.066Z,16.40
2017-11-14T22:24:11.751Z,17.40
2017-11-14T22:26:14.426Z,19.27
2017-11-14T22:28:17.060Z,19.17
2017-11-14T22:30:19.720Z,19.87
2017-11-14T22:32:22.408Z,19.30
2017-11-14T22:34:25.086Z,19.83
2017-11-14T22:36:27.761Z,18.23
2017-11-14T22:38:30.426Z,18.70
2017-11-14T22:40:33.853Z,19.43
2017-11-14T22:42:36.529Z,20.10
2017-11-14T22:44:39.164Z,19.93
2017-11-14T22:46:42.570Z,20.93
2017-11-14T22:48:45.247Z,20.43
2017-11-14T22:50:47.945Z,21.10
2017-11-14T22:52:51.343Z,22.20
2017-11-14T22:54:54.485Z,23.30
2017-11-14T22:56:57.896Z,21.70
2017-11-14T22:59:00.550Z,21.30
2017-11-14T23:01:04.014Z,23.77
2017-11-14T23:03:06.693Z,22.30
2017-11-14T23:05:09.371Z,21.50
2017-11-14T23:07:12.038Z,22.23
2017-11-14T23:09:14.670Z,21.80
2017-11-14T23:11:17.336Z,22.43
2017-11-14T23:13:19.996Z,21.60
2017-11-14T23:15:23.452Z,23.27
2017-11-14T23:17:26.127Z,22.10
2017-11-14T23:19:28.841Z,24.27
2017-11-14T23:21:32.279Z,23.10
2017-11-14T23:23:34.922Z,23.00
2017-11-14T23:25:37.557Z,25.23
2017-11-14T23:27:40.225Z,24.63
2017-11-14T23:29:42.877Z,25.77
2017-11-14T23:31:45.554Z,26.00
2017-11-14T23:33:48.197Z,27.30
2017-11-14T23:35:50.832Z,28.23
2017-11-14T23:37:53.489Z,25.33
2017-11-14T23:39:56.127Z,27.00
2017-11-14T23:41:58.859Z,26.57
2017-11-14T23:44:01.509Z,28.43
2017-11-14T23:46:04.144Z,29.30
2017-11-14T23:48:06.792Z,28.53
2017-11-14T23:50:09.442Z,27.10
2017-11-14T23:52:12.190Z,27.77
2017-11-14T23:54:14.834Z,29.20
2017-11-14T23:56:18.335Z,30.20
2017-11-14T23:58:20.989Z,29.90
